Time;durP1;ratioP1;P1;durP2;ratioP2;P2;SDS_P1;SDS_P2;PMS_P1;PMS_P2;Temp;Humidity;BMP_temperature;BMP_pressure;BME280_temperature;BME280_humidity;BME280_pressure;Samples;Min_cycle;Max_cycle;Signal;HPM_P1;HPM_P2
2021/08/16 00:01:51;;;;;;;12.60;5.10;;;19.40;42.90;;;;;;5038008;28;20391;-77
2021/08/16 00:04:16;;;;;;;6.77;4.00;;;19.40;42.30;;;;;;5034890;28;20450;-76
2021/08/16 00:06:42;;;;;;;10.37;4.10;;;19.50;41.70;;;;;;5055012;28;20393;-76
2021/08/16 00:09:08;;;;;;;6.60;3.90;;;19.60;41.00;;;;;;5052763;28;20389;-77
2021/08/16 00:11:35;;;;;;;6.30;3.53;;;19.70;40.00;;;;;;5056285;28;20411;-76
2021/08/16 00:14:01;;;;;;;6.55;3.30;;;19.70;39.50;;;;;;5055011;28;20885;-77
2021/08/16 00:16:27;;;;;;;15.03;3.20;;;19.70;37.50;;;;;;5055590;28;20400;-77
2021/08/16 00:18:53;;;;;;;4.18;3.33;;;19.60;36.60;;;;;;5053360;28;20396;-77
2021/08/16 00:21:18;;;;;;;5.43;2.93;;;19.40;36.70;;;;;;5052014;28;20394;-77
2021/08/16 00:23:44;;;;;;;6.50;3.20;;;19.20;36.60;;;;;;5055290;28;20448;-77
2021/08/16 00:26:10;;;;;;;8.13;3.38;;;19.10;36.40;;;;;;5038610;28;20727;-76
2021/08/16 00:28:35;;;;;;;11.85;3.30;;;19.10;35.60;;;;;;5037261;28;20421;-77
2021/08/16 00:31:01;;;;;;;9.45;3.30;;;18.90;33.90;;;;;;5032196;28;20387;-76
2021/08/16 00:33:27;;;;;;;12.35;3.47;;;18.80;32.80;;;;;;5032057;28;20449;-77
2021/08/16 00:35:52;;;;;;;9.20;3.60;;;18.60;32.90;;;;;;5046875;28;20735;-77
2021/08/16 00:38:18;;;;;;;11.80;3.80;;;18.50;33.00;;;;;;5050607;28;20977;-77
2021/08/16 00:40:43;;;;;;;14.88;3.97;;;18.30;33.00;;;;;;5050399;28;20392;-75
2021/08/16 00:43:09;;;;;;;12.80;3.40;;;18.20;33.30;;;;;;5050356;28;20912;-76
2021/08/16 00:45:35;;;;;;;9.07;3.40;;;18.10;33.70;;;;;;5041841;28;20397;-75
2021/08/16 00:48:01;;;;;;;14.30;3.60;;;18.00;33.90;;;;;;5049297;28;20393;-75
2021/08/16 00:50:27;;;;;;;12.70;3.40;;;17.90;34.50;;;;;;5050153;28;20528;-76
2021/08/16 00:52:52;;;;;;;9.63;3.58;;;17.70;35.00;;;;;;5035125;28;20925;-75
2021/08/16 00:55:19;;;;;;;10.65;3.63;;;17.70;35.30;;;;;;5029752;28;20411;-76
2021/08/16 00:57:45;;;;;;;8.93;3.45;;;17.60;36.10;;;;;;5043730;28;20915;-75
2021/08/16 01:00:11;;;;;;;13.73;3.90;;;17.50;36.00;;;;;;5050537;28;20397;-76
2021/08/16 01:02:40;;;;;;;7.13;3.45;;;17.50;35.90;;;;;;5048741;28;20396;-76
2021/08/16 01:05:08;;;;;;;15.02;3.78;;;17.40;36.10;;;;;;5050790;28;20382;-76
2021/08/16 01:07:34;;;;;;;8.68;3.78;;;17.50;35.90;;;;;;5039458;28;20399;-76
2021/08/16 01:10:02;;;;;;;13.10;3.75;;;17.50;35.90;;;;;;5038029;28;20398;-77
2021/08/16 01:12:33;;;;;;;10.55;3.22;;;17.40;36.00;;;;;;5054088;28;20743;-77
2021/08/16 01:15:01;;;;;;;8.98;3.40;;;17.40;36.00;;;;;;5054067;28;20886;-76
2021/08/16 01:17:27;;;;;;;10.70;3.53;;;17.30;36.30;;;;;;5049710;28;20463;-76
2021/08/16 01:19:53;;;;;;;12.15;3.40;;;17.40;36.00;;;;;;5051035;28;20795;-77
2021/08/16 01:22:19;;;;;;;11.20;3.63;;;17.40;36.10;;;;;;5043371;28;20445;-76
2021/08/16 01:24:45;;;;;;;14.07;3.30;;;17.30;36.20;;;;;;5049007;28;20397;-76
2021/08/16 01:27:12;;;;;;;10.27;3.20;;;17.30;36.70;;;;;;5053590;28;20399;-75
2021/08/16 01:29:38;;;;;;;7.70;3.20;;;17.40;36.40;;;;;;5052941;28;20389;-76
2021/08/16 01:32:05;;;;;;;8.05;3.17;;;17.50;36.40;;;;;;5040485;28;20449;-76
2021/08/16 01:34:31;;;;;;;12.25;3.28;;;17.60;35.70;;;;;;5032718;28;20406;-76
2021/08/16 01:36:58;;;;;;;16.45;3.83;;;17.70;35.90;;;;;;5035701;28;20414;-76
2021/08/16 01:39:24;;;;;;;11.05;3.58;;;17.80;35.30;;;;;;5034171;28;20467;-75
2021/08/16 01:41:50;;;;;;;12.38;3.80;;;17.80;35.20;;;;;;5049647;28;20881;-76
2021/08/16 01:44:17;;;;;;;13.13;3.58;;;17.90;35.00;;;;;;5055823;28;20401;-76
2021/08/16 01:46:45;;;;;;;10.98;3.80;;;17.90;35.00;;;;;;5041342;28;20733;-77
2021/08/16 01:49:11;;;;;;;11.20;3.30;;;17.90;35.30;;;;;;5039618;28;20391;-76
2021/08/16 01:51:38;;;;;;;7.72;3.30;;;17.90;35.40;;;;;;5038344;28;20882;-76
2021/08/16 01:54:05;;;;;;;13.30;3.90;;;17.90;35.10;;;;;;5035150;28;20395;-74
2021/08/16 01:56:30;;;;;;;11.07;3.40;;;17.90;35.40;;;;;;5034074;28;20939;-76
2021/08/16 01:58:56;;;;;;;9.33;3.60;;;17.80;35.40;;;;;;5033909;28;20470;-77
2021/08/16 02:01:21;;;;;;;7.43;3.40;;;17.90;35.20;;;;;;5041275;28;20412;-75
2021/08/16 02:03:47;;;;;;;8.57;3.40;;;17.90;35.20;;;;;;5054111;28;20377;-77
2021/08/16 02:06:14;;;;;;;11.73;3.17;;;17.90;35.50;;;;;;5052627;28;20385;-76
2021/08/16 02:08:40;;;;;;;18.50;3.60;;;17.80;35.90;;;;;;5053487;28;20979;-77
2021/08/16 02:11:06;;;;;;;19.17;3.90;;;17.80;35.60;;;;;;5050855;28;20463;-76
2021/08/16 02:13:31;;;;;;;10.87;4.00;;;17.80;35.90;;;;;;5052594;28;20389;-77
2021/08/16 02:15:57;;;;;;;10.93;3.80;;;17.70;36.20;;;;;;5042413;28;20481;-77
2021/08/16 02:18:23;;;;;;;18.42;4.80;;;17.70;36.80;;;;;;5032203;28;20389;-77
2021/08/16 02:20:48;;;;;;;9.23;3.70;;;17.70;36.60;;;;;;5032667;28;20414;-77
2021/08/16 02:23:14;;;;;;;10.38;3.60;;;17.60;36.40;;;;;;5032440;28;20387;-77
2021/08/16 02:25:39;;;;;;;9.17;4.00;;;17.60;36.70;;;;;;5038500;28;20397;-76
2021/08/16 02:28:05;;;;;;;11.93;4.17;;;17.60;36.80;;;;;;5052208;28;20770;-76
2021/08/16 02:30:31;;;;;;;14.30;4.40;;;17.60;36.80;;;;;;5052146;28;20435;-76
2021/08/16 02:32:57;;;;;;;10.67;4.53;;;17.60;36.90;;;;;;5038694;28;20939;-76
2021/08/16 02:35:23;;;;;;;10.03;4.20;;;17.50;37.10;;;;;;5030852;28;20450;-76
2021/08/16 02:37:48;;;;;;;13.20;4.07;;;17.50;37.00;;;;;;5032320;28;20390;-76
2021/08/16 02:40:14;;;;;;;14.37;4.67;;;17.50;37.30;;;;;;5032335;28;20462;-76
2021/08/16 02:42:41;;;;;;;14.90;4.60;;;17.50;37.40;;;;;;5042278;28;20438;-76
2021/08/16 02:45:07;;;;;;;10.85;4.30;;;17.50;38.00;;;;;;5047308;28;20395;-75
2021/08/16 02:47:33;;;;;;;15.65;4.57;;;17.50;37.50;;;;;;5031522;28;20406;-76
2021/08/16 02:49:59;;;;;;;13.25;4.60;;;17.40;37.90;;;;;;5031607;28;20410;-76
2021/08/16 02:52:24;;;;;;;12.95;4.50;;;17.40;37.90;;;;;;5034868;28;20763;-75
2021/08/16 02:54:50;;;;;;;12.03;4.00;;;17.40;37.80;;;;;;5031519;28;20457;-75
2021/08/16 02:57:20;;;;;;;13.98;3.80;;;17.30;38.10;;;;;;5040497;28;20400;-76
2021/08/16 02:59:45;;;;;;;17.70;4.60;;;17.40;37.90;;;;;;5051906;28;20378;-77
2021/08/16 03:02:11;;;;;;;11.30;3.97;;;17.40;37.70;;;;;;5051721;28;20885;-77
2021/08/16 03:04:36;;;;;;;17.55;4.53;;;17.40;37.60;;;;;;5052047;28;20763;-77
2021/08/16 03:07:03;;;;;;;10.45;4.30;;;17.40;37.70;;;;;;5048888;28;20433;-76
2021/08/16 03:09:29;;;;;;;17.35;4.70;;;17.30;38.10;;;;;;5040917;28;20694;-75
2021/08/16 03:11:55;;;;;;;10.63;4.63;;;17.20;38.30;;;;;;5056989;28;20382;-76
2021/08/16 03:14:21;;;;;;;13.88;4.50;;;17.10;38.90;;;;;;5051082;28;20444;-76
2021/08/16 03:16:47;;;;;;;17.13;4.55;;;17.20;39.50;;;;;;5048647;28;20441;-75
2021/08/16 03:19:12;;;;;;;17.27;5.00;;;17.00;39.50;;;;;;5032096;28;20458;-75
2021/08/16 03:21:38;;;;;;;17.07;5.00;;;17.00;39.90;;;;;;5030939;28;20387;-74
2021/08/16 03:24:04;;;;;;;15.60;5.07;;;17.00;40.30;;;;;;5031313;28;20745;-74
2021/08/16 03:26:29;;;;;;;13.57;5.35;;;16.90;41.10;;;;;;5031458;28;20405;-76
2021/08/16 03:28:55;;;;;;;14.30;4.80;;;16.90;41.80;;;;;;5031317;28;20383;-75
2021/08/16 03:31:20;;;;;;;17.42;5.30;;;17.00;40.40;;;;;;5031251;28;20744;-75
2021/08/16 03:33:46;;;;;;;13.40;5.32;;;17.00;40.60;;;;;;5031589;28;20776;-75
2021/08/16 03:36:12;;;;;;;18.88;5.20;;;17.10;40.40;;;;;;5045400;28;20405;-76
2021/08/16 03:38:38;;;;;;;13.05;5.15;;;17.00;40.50;;;;;;5045605;28;20407;-76
2021/08/16 03:41:04;;;;;;;18.55;5.60;;;17.10;40.30;;;;;;5030979;28;20402;-75
2021/08/16 03:43:30;;;;;;;14.32;5.47;;;17.20;40.20;;;;;;5049923;28;20401;-75
2021/08/16 03:45:56;;;;;;;14.97;5.20;;;17.20;40.00;;;;;;5044315;28;20411;-75
2021/08/16 03:48:21;;;;;;;9.53;4.90;;;17.20;40.40;;;;;;5035695;28;20458;-74
2021/08/16 03:50:47;;;;;;;13.87;5.70;;;17.20;40.00;;;;;;5033941;28;20427;-75
2021/08/16 03:53:13;;;;;;;14.50;5.28;;;17.20;40.00;;;;;;5035507;28;20422;-76
2021/08/16 03:55:40;;;;;;;14.33;5.40;;;17.20;40.30;;;;;;5032967;28;20506;-73
2021/08/16 03:58:06;;;;;;;13.60;4.90;;;17.20;40.60;;;;;;5033446;28;20470;-73
2021/08/16 04:00:31;;;;;;;13.90;5.30;;;17.20;40.70;;;;;;5033451;28;20879;-74
2021/08/16 04:02:57;;;;;;;13.43;5.40;;;17.20;40.60;;;;;;5046458;28;20389;-73
2021/08/16 04:05:23;;;;;;;13.20;5.10;;;17.30;40.30;;;;;;5051130;28;20394;-75
2021/08/16 04:07:49;;;;;;;14.73;4.70;;;17.40;40.30;;;;;;5053318;28;20401;-75
2021/08/16 04:10:15;;;;;;;12.60;5.30;;;17.40;40.30;;;;;;5048905;28;20823;-74
2021/08/16 04:12:42;;;;;;;13.93;5.38;;;17.30;40.60;;;;;;5039237;28;20399;-73
2021/08/16 04:15:13;;;;;;;18.85;5.03;;;17.30;40.70;;;;;;5030505;28;20411;-73
2021/08/16 04:17:39;;;;;;;16.30;5.10;;;17.30;41.20;;;;;;5030141;28;20390;-75
2021/08/16 04:20:06;;;;;;;22.40;5.70;;;17.30;41.20;;;;;;5029246;28;20394;-74
2021/08/16 04:22:31;;;;;;;16.08;5.07;;;17.30;41.30;;;;;;5040610;28;20389;-74
2021/08/16 04:24:58;;;;;;;14.17;4.80;;;17.30;41.40;;;;;;5050519;28;20970;-74
2021/08/16 04:27:25;;;;;;;11.30;5.22;;;17.30;41.30;;;;;;5049897;28;20405;-75
2021/08/16 04:29:50;;;;;;;17.75;5.50;;;17.30;41.40;;;;;;5050374;28;20838;-74
2021/08/16 04:32:16;;;;;;;13.10;5.03;;;17.30;41.30;;;;;;5042709;28;20430;-74
2021/08/16 04:34:42;;;;;;;12.27;5.00;;;17.40;41.60;;;;;;5030412;28;20422;-74
2021/08/16 04:37:07;;;;;;;19.50;4.55;;;17.30;41.90;;;;;;5030635;28;20543;-74
2021/08/16 04:39:33;;;;;;;15.40;5.07;;;17.30;41.90;;;;;;5039188;28;20410;-74
2021/08/16 04:41:59;;;;;;;13.33;4.67;;;17.30;42.10;;;;;;5052239;28;20393;-73
2021/08/16 04:44:24;;;;;;;14.37;5.27;;;17.30;42.20;;;;;;5064004;28;20392;-74
2021/08/16 04:46:50;;;;;;;11.83;4.60;;;17.30;42.40;;;;;;5038431;28;20821;-74
2021/08/16 04:49:15;;;;;;;15.30;4.85;;;17.30;42.10;;;;;;5038824;28;20391;-74
2021/08/16 04:51:41;;;;;;;18.67;4.40;;;17.40;41.80;;;;;;5034231;28;20464;-74
2021/08/16 04:54:06;;;;;;;11.90;4.30;;;17.40;42.30;;;;;;5029256;28;20527;-75
2021/08/16 04:56:32;;;;;;;14.67;5.70;;;17.40;42.00;;;;;;5031242;28;20391;-73
2021/08/16 04:59:00;;;;;;;13.30;4.90;;;17.50;41.90;;;;;;5032690;28;20402;-73
2021/08/16 05:01:26;;;;;;;11.38;4.65;;;17.50;42.10;;;;;;5032804;28;20386;-73
2021/08/16 05:03:51;;;;;;;17.00;4.50;;;17.50;42.10;;;;;;5035975;28;20466;-74
2021/08/16 05:06:17;;;;;;;14.13;4.20;;;17.50;42.10;;;;;;5052300;28;20865;-73
2021/08/16 05:08:43;;;;;;;12.60;4.80;;;17.50;42.10;;;;;;5051956;28;20421;-73
2021/08/16 05:11:09;;;;;;;16.02;5.35;;;17.50;42.30;;;;;;5053489;28;20384;-73
2021/08/16 05:13:34;;;;;;;15.68;4.72;;;17.50;42.20;;;;;;5053103;28;20749;-73
2021/08/16 05:16:01;;;;;;;16.13;4.70;;;17.50;42.20;;;;;;5051488;28;20490;-73
2021/08/16 05:18:27;;;;;;;18.38;5.20;;;17.60;42.40;;;;;;5053301;28;20758;-73
2021/08/16 05:20:54;;;;;;;18.13;5.50;;;17.60;42.00;;;;;;5053501;28;20385;-74
2021/08/16 05:23:20;;;;;;;15.85;4.35;;;17.60;42.40;;;;;;5053243;28;20447;-75
2021/08/16 05:25:46;;;;;;;25.70;5.50;;;17.60;42.70;;;;;;5050584;28;20393;-73
2021/08/16 05:28:12;;;;;;;19.80;5.40;;;17.70;41.90;;;;;;5033135;28;20390;-74
2021/08/16 05:30:38;;;;;;;18.33;5.30;;;17.70;41.60;;;;;;5035319;28;20399;-74
2021/08/16 05:33:04;;;;;;;17.40;5.67;;;17.70;42.10;;;;;;5046111;28;20397;-75
2021/08/16 05:35:30;;;;;;;18.90;5.40;;;17.80;41.90;;;;;;5044008;28;20407;-75
2021/08/16 05:37:57;;;;;;;16.27;5.47;;;17.70;42.00;;;;;;5041279;28;20389;-74
2021/08/16 05:40:23;;;;;;;14.30;5.88;;;17.70;42.40;;;;;;5044021;28;20466;-76
2021/08/16 05:42:49;;;;;;;19.90;5.60;;;17.70;42.60;;;;;;5050896;28;20381;-73
2021/08/16 05:45:14;;;;;;;22.85;6.53;;;17.70;42.80;;;;;;5033047;28;20383;-75
2021/08/16 05:47:40;;;;;;;18.40;6.20;;;17.60;43.20;;;;;;5042762;28;20403;-75
2021/08/16 05:50:06;;;;;;;15.93;4.80;;;17.60;43.60;;;;;;5036945;28;20938;-73
2021/08/16 05:52:33;;;;;;;27.52;13.35;;;17.60;43.70;;;;;;5043222;28;20408;-74
2021/08/16 05:54:59;;;;;;;20.13;5.60;;;17.70;43.60;;;;;;5039755;28;20794;-74
2021/08/16 05:57:24;;;;;;;14.30;5.60;;;17.80;42.80;;;;;;5053009;28;20385;-73
2021/08/16 05:59:50;;;;;;;17.27;5.25;;;17.80;42.80;;;;;;5050104;28;20886;-73
2021/08/16 06:02:16;;;;;;;13.03;4.60;;;17.80;42.70;;;;;;5048017;28;20836;-75
2021/08/16 06:04:41;;;;;;;16.20;5.50;;;17.80;42.70;;;;;;5037099;28;20423;-76
2021/08/16 06:07:07;;;;;;;17.83;4.87;;;17.80;42.50;;;;;;5056720;28;20398;-76
2021/08/16 06:09:32;;;;;;;15.70;5.03;;;17.90;42.40;;;;;;5034064;28;20492;-76
2021/08/16 06:11:58;;;;;;;15.50;4.32;;;17.90;42.70;;;;;;5051998;28;20424;-73
2021/08/16 06:14:24;;;;;;;13.70;4.40;;;17.80;42.70;;;;;;5033615;28;20486;-74
2021/08/16 06:16:49;;;;;;;15.63;5.00;;;17.80;42.60;;;;;;5034560;28;20883;-73
2021/08/16 06:19:15;;;;;;;13.75;5.20;;;17.80;42.80;;;;;;5034506;28;20760;-75
2021/08/16 06:21:42;;;;;;;15.80;4.70;;;17.90;42.90;;;;;;5039168;28;20459;-72
2021/08/16 06:24:10;;;;;;;14.20;4.90;;;17.90;42.10;;;;;;5044722;28;20478;-74
2021/08/16 06:26:35;;;;;;;19.20;4.90;;;18.00;41.70;;;;;;5050808;28;20399;-73
2021/08/16 06:29:01;;;;;;;20.40;5.10;;;18.10;41.90;;;;;;5061569;22;20425;-72
2021/08/16 06:31:27;;;;;;;16.73;4.60;;;18.00;41.30;;;;;;5050446;28;20829;-72
2021/08/16 06:33:52;;;;;;;16.85;4.55;;;18.10;41.40;;;;;;5039771;28;20759;-71
2021/08/16 06:36:19;;;;;;;14.00;4.47;;;18.30;40.60;;;;;;5050843;28;20520;-71
2021/08/16 06:38:46;;;;;;;16.45;4.68;;;18.40;39.80;;;;;;5050889;28;20440;-72
2021/08/16 06:41:15;;;;;;;20.38;4.75;;;18.40;40.20;;;;;;5064537;28;20398;-71
2021/08/16 06:43:41;;;;;;;15.35;4.30;;;18.40;39.90;;;;;;5071930;28;20388;-71
2021/08/16 06:46:07;;;;;;;21.08;5.13;;;18.60;39.30;;;;;;5068403;28;20613;-71
2021/08/16 06:48:32;;;;;;;20.02;4.68;;;18.80;38.50;;;;;;5063367;28;20746;-71
2021/08/16 06:50:58;;;;;;;15.27;4.70;;;18.80;38.20;;;;;;5071744;28;20395;-71
2021/08/16 06:53:24;;;;;;;14.30;5.23;;;19.00;37.70;;;;;;5060383;28;20887;-71
2021/08/16 06:55:50;;;;;;;17.03;4.80;;;19.20;36.60;;;;;;5067406;28;20399;-73
2021/08/16 06:58:16;;;;;;;11.68;4.63;;;19.30;36.10;;;;;;5057025;28;20852;-73
2021/08/16 07:00:43;;;;;;;15.15;4.50;;;19.40;35.90;;;;;;5070946;28;20486;-73
2021/08/16 07:03:10;;;;;;;16.05;4.80;;;19.50;35.20;;;;;;5070994;28;20434;-72
2021/08/16 07:05:37;;;;;;;13.38;5.03;;;19.40;35.60;;;;;;5064100;28;20781;-72
2021/08/16 07:08:02;;;;;;;16.02;4.80;;;19.30;36.00;;;;;;5051368;28;20451;-72
2021/08/16 07:10:28;;;;;;;9.98;5.10;;;19.20;36.70;;;;;;5054466;28;20397;-72
2021/08/16 07:12:53;;;;;;;17.40;5.20;;;19.10;36.90;;;;;;5051846;28;20853;-73
2021/08/16 07:15:19;;;;;;;19.90;5.70;;;19.00;37.20;;;;;;5065213;28;20416;-73
2021/08/16 07:17:45;;;;;;;13.88;4.78;;;19.00;37.40;;;;;;5060112;28;20957;-73
2021/08/16 07:20:10;;;;;;;18.00;5.10;;;19.20;36.90;;;;;;5062478;28;20408;-72
2021/08/16 07:22:37;;;;;;;11.40;5.20;;;19.40;35.90;;;;;;5061541;28;20445;-71
2021/08/16 07:25:05;;;;;;;14.70;5.10;;;19.70;35.10;;;;;;5076186;28;20403;-73
2021/08/16 07:27:30;;;;;;;11.02;4.60;;;19.80;34.60;;;;;;5058246;28;20876;-72
2021/08/16 07:29:56;;;;;;;11.73;4.25;;;19.90;34.00;;;;;;5065296;28;20403;-72
2021/08/16 07:32:21;;;;;;;10.32;4.22;;;19.90;34.00;;;;;;5066587;28;20403;-74
2021/08/16 07:34:47;;;;;;;13.03;4.70;;;19.70;34.30;;;;;;5064221;28;20411;-72
2021/08/16 07:37:14;;;;;;;17.35;4.90;;;19.60;34.70;;;;;;5058091;28;20565;-72
2021/08/16 07:39:40;;;;;;;14.50;4.53;;;19.80;34.30;;;;;;5061368;28;20396;-72
2021/08/16 07:42:05;;;;;;;17.10;4.40;;;20.00;33.80;;;;;;5054621;28;20396;-71
2021/08/16 07:44:31;;;;;;;7.55;4.20;;;20.00;33.60;;;;;;5065149;28;20399;-71
2021/08/16 07:46:59;;;;;;;10.50;4.30;;;20.10;33.60;;;;;;5054652;28;20393;-73
2021/08/16 07:49:31;;;;;;;12.65;5.13;;;19.80;33.80;;;;;;5050076;28;20393;-72
2021/08/16 07:52:01;;;;;;;10.75;4.57;;;19.70;34.70;;;;;;5057577;28;20899;-71
2021/08/16 07:54:27;;;;;;;15.93;4.53;;;19.60;34.80;;;;;;5068771;28;20426;-72
2021/08/16 07:56:52;;;;;;;10.57;4.60;;;19.50;35.10;;;;;;5055336;28;20826;-72
2021/08/16 07:59:18;;;;;;;10.50;4.30;;;19.40;35.50;;;;;;5057119;28;20870;-72
2021/08/16 08:01:45;;;;;;;8.48;4.00;;;19.40;35.60;;;;;;5057736;28;20416;-73
2021/08/16 08:04:10;;;;;;;11.50;4.60;;;19.30;35.80;;;;;;5058010;28;20391;-72
2021/08/16 08:06:36;;;;;;;14.43;5.03;;;19.40;36.00;;;;;;5054832;28;20462;-72
2021/08/16 08:09:02;;;;;;;8.55;4.80;;;19.30;36.30;;;;;;5059216;28;20399;-74
2021/08/16 08:11:27;;;;;;;13.23;4.63;;;19.40;36.20;;;;;;5061769;28;20395;-72
2021/08/16 08:13:53;;;;;;;12.17;4.57;;;19.30;36.70;;;;;;5066206;28;20388;-72
2021/08/16 08:16:18;;;;;;;10.93;4.20;;;19.10;37.30;;;;;;5068410;28;20499;-71
2021/08/16 08:18:44;;;;;;;15.95;4.25;;;19.20;37.10;;;;;;5068684;28;20399;-73
2021/08/16 08:21:10;;;;;;;12.50;4.37;;;19.20;36.90;;;;;;5068206;28;20445;-70
2021/08/16 08:23:35;;;;;;;7.87;4.00;;;19.50;36.40;;;;;;5067558;28;20464;-73
2021/08/16 08:26:01;;;;;;;9.98;4.43;;;19.90;35.70;;;;;;5070220;28;20411;-75
2021/08/16 08:28:26;;;;;;;13.10;4.25;;;20.00;34.40;;;;;;5069855;28;20399;-76
2021/08/16 08:30:52;;;;;;;14.67;4.63;;;20.10;34.10;;;;;;5071543;28;20471;-76
2021/08/16 08:33:18;;;;;;;14.10;4.40;;;20.40;33.40;;;;;;5073761;28;20399;-75
2021/08/16 08:35:45;;;;;;;7.70;3.88;;;20.50;32.70;;;;;;5065030;28;20899;-71
2021/08/16 08:38:11;;;;;;;11.30;3.80;;;20.80;31.80;;;;;;5069241;28;20398;-71
2021/08/16 08:40:38;;;;;;;11.47;4.43;;;20.80;31.70;;;;;;5060622;28;20401;-71
2021/08/16 08:43:09;;;;;;;8.93;3.80;;;20.90;31.70;;;;;;5070732;28;20380;-71
2021/08/16 08:45:35;;;;;;;13.23;4.07;;;20.80;31.50;;;;;;5073306;28;20574;-71
2021/08/16 08:48:01;;;;;;;13.57;4.07;;;20.70;32.30;;;;;;5058807;28;20397;-74
2021/08/16 08:50:26;;;;;;;8.23;4.20;;;20.60;32.40;;;;;;5063570;28;20425;-71
2021/08/16 08:52:58;;;;;;;12.37;3.80;;;20.50;32.90;;;;;;5061919;28;20399;-70
2021/08/16 08:55:23;;;;;;;10.50;4.00;;;20.40;33.20;;;;;;5073828;28;20923;-71
2021/08/16 08:57:49;;;;;;;13.57;6.70;;;20.40;33.00;;;;;;5065481;28;20581;-71
2021/08/16 09:00:19;;;;;;;10.53;4.10;;;20.50;32.80;;;;;;5074152;28;20465;-71
2021/08/16 09:02:58;;;;;;;11.50;3.90;;;20.50;33.10;;;;;;5073075;28;20733;-71
2021/08/16 09:05:23;;;;;;;16.98;4.32;;;20.80;32.10;;;;;;5073685;28;20368;-72
2021/08/16 09:07:49;;;;;;;10.30;4.07;;;21.00;31.80;;;;;;5071628;28;20403;-71
2021/08/16 09:10:16;;;;;;;10.93;4.18;;;21.00;31.60;;;;;;5073151;28;20391;-71
2021/08/16 09:12:44;;;;;;;10.63;3.80;;;20.80;31.10;;;;;;5073138;28;20837;-70
2021/08/16 09:15:17;;;;;;;10.75;3.92;;;20.60;32.20;;;;;;5072297;28;20770;-70
2021/08/16 09:17:43;;;;;;;7.20;3.57;;;20.60;32.50;;;;;;5070076;28;20394;-71
2021/08/16 09:20:24;;;;;;;11.37;3.90;;;20.60;33.10;;;;;;5071786;28;20876;-69
2021/08/16 09:22:56;;;;;;;10.05;4.43;;;20.60;33.20;;;;;;5071622;28;20384;-70
2021/08/16 09:25:22;;;;;;;10.70;4.30;;;20.60;32.60;;;;;;5071896;28;20392;-70
2021/08/16 09:27:48;;;;;;;15.68;4.97;;;20.60;32.20;;;;;;5072063;28;20870;-70
2021/08/16 09:30:16;;;;;;;9.32;3.88;;;20.70;32.70;;;;;;5073312;28;20398;-70
2021/08/16 09:32:43;;;;;;;11.35;3.90;;;20.80;32.00;;;;;;5071381;28;20790;-72
2021/08/16 09:35:11;;;;;;;10.20;4.50;;;21.00;31.10;;;;;;5058743;28;20499;-70
2021/08/16 09:37:39;;;;;;;7.40;3.75;;;21.10;30.10;;;;;;5065944;28;20808;-70
2021/08/16 09:40:09;;;;;;;6.30;3.60;;;21.30;29.60;;;;;;5055959;28;20707;-71
2021/08/16 09:42:52;;;;;;;6.35;3.50;;;21.20;29.40;;;;;;5071965;28;20427;-70
2021/08/16 09:45:32;;;;;;;13.70;4.05;;;21.10;29.80;;;;;;5070817;28;20506;-72
2021/08/16 09:48:00;;;;;;;7.15;3.80;;;21.00;30.50;;;;;;5071903;28;20403;-70
2021/08/16 09:50:46;;;;;;;11.10;3.80;;;21.00;30.50;;;;;;5071757;28;20392;-71
2021/08/16 09:53:12;;;;;;;13.85;4.30;;;21.10;30.40;;;;;;5073238;28;20872;-70
2021/08/16 09:55:40;;;;;;;12.93;4.50;;;21.30;30.00;;;;;;5069600;28;20469;-70
2021/08/16 09:58:13;;;;;;;10.70;3.90;;;21.30;29.40;;;;;;5071563;28;20392;-70
2021/08/16 10:00:40;;;;;;;10.52;4.22;;;21.10;30.20;;;;;;5072513;28;20394;-70
2021/08/16 10:03:11;;;;;;;9.32;4.15;;;20.80;31.40;;;;;;5071151;28;20392;-72
2021/08/16 10:05:38;;;;;;;12.53;4.17;;;20.70;31.70;;;;;;5066151;28;20393;-70
2021/08/16 10:08:19;;;;;;;17.02;5.15;;;20.50;33.10;;;;;;5056864;28;20431;-70
2021/08/16 10:10:45;;;;;;;15.35;4.80;;;20.40;34.20;;;;;;5060788;28;20448;-70
2021/08/16 10:13:11;;;;;;;10.40;4.93;;;20.10;38.90;;;;;;5071547;28;20864;-73
2021/08/16 10:15:43;;;;;;;12.15;5.55;;;19.80;43.10;;;;;;5071515;28;20408;-70
2021/08/16 10:18:12;;;;;;;12.52;6.13;;;19.50;44.90;;;;;;5072077;28;20419;-70
2021/08/16 10:20:38;;;;;;;13.35;7.05;;;19.50;48.30;;;;;;5070168;28;20930;-70
2021/08/16 10:23:18;;;;;;;13.25;6.20;;;19.50;46.50;;;;;;5072448;28;20519;-70
2021/08/16 10:25:46;;;;;;;11.18;5.50;;;19.60;45.90;;;;;;5071268;28;20822;-71
2021/08/16 10:28:30;;;;;;;13.50;6.43;;;19.90;44.60;;;;;;5062798;28;20403;-72
2021/08/16 10:30:58;;;;;;;12.00;5.90;;;20.00;44.80;;;;;;5071535;28;20423;-72
2021/08/16 10:33:24;;;;;;;10.43;6.50;;;20.00;43.90;;;;;;5071707;28;20453;-71
2021/08/16 10:35:51;;;;;;;12.20;7.20;;;19.80;46.80;;;;;;5062857;28;20493;-71
2021/08/16 10:38:18;;;;;;;11.63;6.78;;;19.30;58.00;;;;;;5062187;28;20541;-71
2021/08/16 10:40:49;;;;;;;6.43;3.40;;;18.50;61.30;;;;;;5057566;28;20429;-70
2021/08/16 10:43:16;;;;;;;3.67;2.75;;;18.10;60.50;;;;;;5071364;28;20388;-71
2021/08/16 10:45:53;;;;;;;4.37;2.50;;;17.90;62.20;;;;;;5071477;28;20478;-71
2021/08/16 10:48:28;;;;;;;5.10;3.22;;;17.90;60.90;;;;;;5070894;28;20395;-70
2021/08/16 10:51:05;;;;;;;5.35;3.10;;;18.00;60.30;;;;;;5059471;28;20447;-70
2021/08/16 10:53:33;;;;;;;3.27;2.90;;;18.00;60.20;;;;;;5061233;28;20521;-71
2021/08/16 10:55:58;;;;;;;4.45;2.97;;;18.30;57.40;;;;;;5071208;28;20419;-72
2021/08/16 10:58:25;;;;;;;8.05;3.28;;;18.80;55.50;;;;;;5070359;28;20388;-71
2021/08/16 11:00:50;;;;;;;3.00;2.80;;;19.20;52.00;;;;;;5070940;28;20431;-71
2021/08/16 11:03:23;;;;;;;3.33;2.97;;;19.30;51.00;;;;;;5060248;28;20442;-71
2021/08/16 11:05:48;;;;;;;3.47;3.15;;;19.00;52.40;;;;;;5060852;28;20478;-71
2021/08/16 11:08:14;;;;;;;6.50;4.00;;;18.70;56.60;;;;;;5070803;28;20597;-71
2021/08/16 11:10:44;;;;;;;8.20;4.70;;;18.40;58.60;;;;;;5068660;28;20855;-71
2021/08/16 11:13:21;;;;;;;10.25;5.32;;;17.80;63.10;;;;;;5069308;28;20384;-70
2021/08/16 11:15:48;;;;;;;10.85;5.70;;;17.00;67.30;;;;;;5069776;28;20407;-71
2021/08/16 11:18:18;;;;;;;13.98;8.88;;;16.50;77.40;;;;;;5071004;28;20518;-70
2021/08/16 11:20:45;;;;;;;15.10;9.45;;;16.30;85.90;;;;;;5067860;28;20955;-71
2021/08/16 11:23:11;;;;;;;13.73;9.20;;;16.30;87.90;;;;;;5070514;28;20391;-69
2021/08/16 11:25:48;;;;;;;18.58;10.20;;;16.30;88.90;;;;;;5070769;28;20399;-70
2021/08/16 11:28:22;;;;;;;12.70;8.68;;;16.50;85.00;;;;;;5063068;28;20393;-74
2021/08/16 11:30:49;;;;;;;20.35;11.90;;;16.50;86.90;;;;;;5058749;28;20745;-73
2021/08/16 11:33:25;;;;;;;17.75;10.40;;;16.60;90.60;;;;;;5058394;28;20400;-70
2021/08/16 11:36:05;;;;;;;14.40;9.90;;;16.70;88.60;;;;;;5059200;28;20407;-71
2021/08/16 11:38:30;;;;;;;14.52;9.18;;;16.70;85.10;;;;;;5068610;28;20737;-72
2021/08/16 11:41:15;;;;;;;13.60;9.30;;;16.70;84.30;;;;;;5069806;28;20481;-72
2021/08/16 11:43:41;;;;;;;13.77;9.93;;;16.80;84.80;;;;;;5064684;28;20953;-71
2021/08/16 11:46:14;;;;;;;17.60;9.20;;;16.90;84.30;;;;;;5070288;28;20399;-71
2021/08/16 11:48:51;;;;;;;15.52;9.80;;;16.90;79.50;;;;;;5056994;28;20403;-71
2021/08/16 11:51:17;;;;;;;15.48;10.23;;;16.90;80.80;;;;;;5062368;28;20426;-72
2021/08/16 11:53:44;;;;;;;15.38;10.00;;;16.90;81.90;;;;;;5059018;28;20411;-71
2021/08/16 11:56:10;;;;;;;16.00;10.27;;;17.00;76.60;;;;;;5055699;28;20496;-71
2021/08/16 11:58:41;;;;;;;14.25;10.23;;;17.00;79.90;;;;;;5050077;28;20431;-70
2021/08/16 12:01:08;;;;;;;13.68;9.85;;;17.00;77.90;;;;;;5052223;28;20865;-72
2021/08/16 12:03:35;;;;;;;11.43;8.23;;;16.90;74.40;;;;;;5050573;28;20888;-71
2021/08/16 12:06:09;;;;;;;12.52;9.20;;;16.90;72.00;;;;;;5048299;28;20504;-71
2021/08/16 12:08:35;;;;;;;20.00;10.55;;;16.80;69.50;;;;;;5052590;28;20411;-70
2021/08/16 12:11:09;;;;;;;18.85;9.38;;;16.80;78.00;;;;;;5057928;28;20447;-70
2021/08/16 12:13:35;;;;;;;16.23;9.07;;;16.90;67.80;;;;;;5050261;28;20401;-70
2021/08/16 12:16:03;;;;;;;16.40;9.10;;;16.90;65.10;;;;;;5049622;28;21571;-70
2021/08/16 12:18:29;;;;;;;18.40;9.77;;;17.00;65.80;;;;;;5049820;28;20435;-71
2021/08/16 12:20:56;;;;;;;15.88;9.05;;;17.10;65.70;;;;;;5058868;28;20407;-70
2021/08/16 12:23:34;;;;;;;15.77;8.48;;;17.10;63.30;;;;;;5061943;28;20372;-71
2021/08/16 12:26:01;;;;;;;21.02;8.23;;;17.30;60.40;;;;;;5067610;28;20399;-71
2021/08/16 12:28:40;;;;;;;13.18;8.60;;;17.30;56.20;;;;;;5089274;22;21317;-74
2021/08/16 12:31:18;;;;;;;15.37;9.20;;;17.20;55.70;;;;;;5050997;28;20953;-76
2021/08/16 12:34:01;;;;;;;18.43;10.80;;;17.30;55.50;;;;;;5054203;28;20417;-74
2021/08/16 12:36:35;;;;;;;17.25;9.45;;;17.10;54.70;;;;;;5054513;28;20912;-75
2021/08/16 12:39:08;;;;;;;23.10;9.15;;;17.00;55.90;;;;;;5038089;28;20404;-75